sensor_id;sensor_type;location;lat;lon;timestamp;pressure;altitude;pressure_sealevel;temperature;humidity
7050;BME280;22263;52.260;10.548;2022-10-16T00:01:38;100054.28;;;15.79;100.00
7050;BME280;22263;52.260;10.548;2022-10-16T00:04:06;100062.34;;;15.73;100.00
7050;BME280;22263;52.260;10.548;2022-10-16T00:06:34;100048.41;;;15.73;100.00
7050;BME280;22263;52.260;10.548;2022-10-16T00:09:02;100053.97;;;15.73;100.00
7050;BME280;22263;52.260;10.548;2022-10-16T00:11:34;100055.25;;;15.68;100.00
7050;BME280;22263;52.260;10.548;2022-10-16T00:14:06;100057.22;;;15.72;100.00
7050;BME280;22263;52.260;10.548;2022-10-16T00:16:34;100060.06;;;15.68;100.00
7050;BME280;22263;52.260;10.548;2022-10-16T00:19:03;100051.81;;;15.61;100.00
7050;BME280;22263;52.260;10.548;2022-10-16T00:21:33;100056.28;;;15.55;100.00
7050;BME280;22263;52.260;10.548;2022-10-16T00:24:04;100060.28;;;15.54;100.00
7050;BME280;22263;52.260;10.548;2022-10-16T00:26:37;100067.13;;;15.46;100.00
7050;BME280;22263;52.260;10.548;2022-10-16T00:29:06;100063.31;;;15.36;100.00
7050;BME280;22263;52.260;10.548;2022-10-16T00:31:34;100066.41;;;15.42;100.00
7050;BME280;22263;52.260;10.548;2022-10-16T00:34:03;100069.19;;;15.42;100.00
7050;BME280;22263;52.260;10.548;2022-10-16T00:36:31;100065.31;;;15.36;100.00
7050;BME280;22263;52.260;10.548;2022-10-16T00:38:59;100065.75;;;15.34;100.00
7050;BME280;22263;52.260;10.548;2022-10-16T00:41:29;100071.66;;;15.36;100.00
7050;BME280;22263;52.260;10.548;2022-10-16T00:44:01;100081.63;;;15.37;100.00
7050;BME280;22263;52.260;10.548;2022-10-16T00:46:31;100074.09;;;15.34;100.00
7050;BME280;22263;52.260;10.548;2022-10-16T00:49:07;100082.75;;;15.40;100.00
7050;BME280;22263;52.260;10.548;2022-10-16T00:51:39;100085.59;;;15.36;100.00
7050;BME280;22263;52.260;10.548;2022-10-16T00:54:11;100090.38;;;15.36;100.00
7050;BME280;22263;52.260;10.548;2022-10-16T00:56:42;100088.31;;;15.40;100.00
7050;BME280;22263;52.260;10.548;2022-10-16T00:59:16;100084.34;;;15.41;100.00
7050;BME280;22263;52.260;10.548;2022-10-16T01:01:46;100078.81;;;15.37;100.00
7050;BME280;22263;52.260;10.548;2022-10-16T01:04:14;100094.66;;;15.44;100.00
7050;BME280;22263;52.260;10.548;2022-10-16T01:06:47;100096.28;;;15.41;100.00
7050;BME280;22263;52.260;10.548;2022-10-16T01:09:24;100094.19;;;15.49;100.00
7050;BME280;22263;52.260;10.548;2022-10-16T01:12:00;100103.38;;;15.46;100.00
7050;BME280;22263;52.260;10.548;2022-10-16T01:14:40;100096.53;;;15.50;100.00
7050;BME280;22263;52.260;10.548;2022-10-16T01:17:13;100097.34;;;15.51;100.00
7050;BME280;22263;52.260;10.548;2022-10-16T01:19:58;100105.84;;;15.40;100.00
7050;BME280;22263;52.260;10.548;2022-10-16T01:22:37;100105.50;;;15.38;100.00
7050;BME280;22263;52.260;10.548;2022-10-16T01:25:11;100093.56;;;15.38;100.00
7050;BME280;22263;52.260;10.548;2022-10-16T01:27:45;100096.69;;;15.40;100.00
7050;BME280;22263;52.260;10.548;2022-10-16T01:30:18;100106.63;;;15.41;100.00
7050;BME280;22263;52.260;10.548;2022-10-16T01:32:52;100097.84;;;15.42;100.00
7050;BME280;22263;52.260;10.548;2022-10-16T01:35:25;100093.50;;;15.41;100.00
7050;BME280;22263;52.260;10.548;2022-10-16T01:37:58;100085.53;;;15.40;100.00
7050;BME280;22263;52.260;10.548;2022-10-16T01:40:29;100089.50;;;15.42;100.00
7050;BME280;22263;52.260;10.548;2022-10-16T01:43:04;100096.97;;;15.49;100.00
7050;BME280;22263;52.260;10.548;2022-10-16T01:45:36;100091.50;;;15.42;100.00
7050;BME280;22263;52.260;10.548;2022-10-16T01:48:06;100095.16;;;15.35;100.00
7050;BME280;22263;52.260;10.548;2022-10-16T01:50:38;100088.38;;;15.36;100.00
7050;BME280;22263;52.260;10.548;2022-10-16T01:53:11;100113.41;;;15.40;100.00
7050;BME280;22263;52.260;10.548;2022-10-16T01:55:43;100108.34;;;15.35;100.00
7050;BME280;22263;52.260;10.548;2022-10-16T01:58:15;100104.00;;;15.30;100.00
7050;BME280;22263;52.260;10.548;2022-10-16T02:00:45;100103.66;;;15.28;100.00
7050;BME280;22263;52.260;10.548;2022-10-16T02:03:18;100112.41;;;15.26;100.00
7050;BME280;22263;52.260;10.548;2022-10-16T02:05:50;100117.25;;;15.22;100.00
7050;BME280;22263;52.260;10.548;2022-10-16T02:08:21;100126.81;;;15.21;100.00
7050;BME280;22263;52.260;10.548;2022-10-16T02:10:51;100124.75;;;15.25;100.00
7050;BME280;22263;52.260;10.548;2022-10-16T02:13:26;100126.34;;;15.26;100.00
7050;BME280;22263;52.260;10.548;2022-10-16T02:15:55;100124.00;;;15.25;100.00
7050;BME280;22263;52.260;10.548;2022-10-16T02:18:24;100124.00;;;15.25;100.00
7050;BME280;22263;52.260;10.548;2022-10-16T02:20:58;100132.44;;;15.18;100.00
7050;BME280;22263;52.260;10.548;2022-10-16T02:23:35;100141.19;;;15.20;100.00
7050;BME280;22263;52.260;10.548;2022-10-16T02:26:08;100141.63;;;15.15;100.00
7050;BME280;22263;52.260;10.548;2022-10-16T02:28:43;100143.19;;;15.16;100.00
7050;BME280;22263;52.260;10.548;2022-10-16T02:31:17;100147.63;;;15.13;100.00
7050;BME280;22263;52.260;10.548;2022-10-16T02:33:46;100147.56;;;15.17;100.00
7050;BME280;22263;52.260;10.548;2022-10-16T02:36:16;100146.03;;;15.12;100.00
7050;BME280;22263;52.260;10.548;2022-10-16T02:38:45;100147.63;;;15.13;100.00
7050;BME280;22263;52.260;10.548;2022-10-16T02:41:14;100148.47;;;15.10;100.00
7050;BME280;22263;52.260;10.548;2022-10-16T02:43:44;100159.59;;;15.10;100.00
7050;BME280;22263;52.260;10.548;2022-10-16T02:46:12;100160.81;;;15.09;100.00
7050;BME280;22263;52.260;10.548;2022-10-16T02:48:41;100158.06;;;15.06;100.00
7050;BME280;22263;52.260;10.548;2022-10-16T02:51:09;100154.91;;;15.04;100.00
7050;BME280;22263;52.260;10.548;2022-10-16T02:53:37;100155.31;;;15.02;100.00
7050;BME280;22263;52.260;10.548;2022-10-16T02:56:06;100156.38;;;15.12;100.00
7050;BME280;22263;52.260;10.548;2022-10-16T02:58:34;100163.47;;;15.16;100.00
7050;BME280;22263;52.260;10.548;2022-10-16T03:01:04;100162.38;;;15.10;100.00
7050;BME280;22263;52.260;10.548;2022-10-16T03:03:33;100163.59;;;15.09;100.00
7050;BME280;22263;52.260;10.548;2022-10-16T03:06:02;100167.84;;;15.17;100.00
7050;BME280;22263;52.260;10.548;2022-10-16T03:08:30;100153.19;;;15.13;100.00
7050;BME280;22263;52.260;10.548;2022-10-16T03:10:58;100166.72;;;15.15;100.00
7050;BME280;22263;52.260;10.548;2022-10-16T03:13:27;100159.16;;;15.15;100.00
7050;BME280;22263;52.260;10.548;2022-10-16T03:15:55;100156.31;;;15.19;100.00
7050;BME280;22263;52.260;10.548;2022-10-16T03:18:25;100148.75;;;15.16;100.00
7050;BME280;22263;52.260;10.548;2022-10-16T03:20:53;100142.00;;;15.17;100.00
7050;BME280;22263;52.260;10.548;2022-10-16T03:23:23;100149.94;;;15.18;100.00
7050;BME280;22263;52.260;10.548;2022-10-16T03:25:51;100151.13;;;15.17;100.00
7050;BME280;22263;52.260;10.548;2022-10-16T03:28:20;100144.16;;;15.06;100.00
7050;BME280;22263;52.260;10.548;2022-10-16T03:30:48;100134.16;;;15.08;100.00
7050;BME280;22263;52.260;10.548;2022-10-16T03:33:16;100135.03;;;15.02;100.00
7050;BME280;22263;52.260;10.548;2022-10-16T03:35:53;100132.69;;;15.00;100.00
7050;BME280;22263;52.260;10.548;2022-10-16T03:38:21;100143.06;;;14.96;100.00
7050;BME280;22263;52.260;10.548;2022-10-16T03:40:49;100146.69;;;14.93;100.00
7050;BME280;22263;52.260;10.548;2022-10-16T03:43:18;100145.09;;;14.92;100.00
7050;BME280;22263;52.260;10.548;2022-10-16T03:45:46;100149.09;;;14.91;100.00
7050;BME280;22263;52.260;10.548;2022-10-16T03:48:14;100149.91;;;14.88;100.00
7050;BME280;22263;52.260;10.548;2022-10-16T03:50:42;100148.34;;;14.87;100.00
7050;BME280;22263;52.260;10.548;2022-10-16T03:53:13;100145.19;;;14.85;100.00
7050;BME280;22263;52.260;10.548;2022-10-16T03:55:42;100150.66;;;14.92;100.00
7050;BME280;22263;52.260;10.548;2022-10-16T03:58:11;100162.19;;;14.94;100.00
7050;BME280;22263;52.260;10.548;2022-10-16T04:00:40;100151.13;;;14.87;100.00
7050;BME280;22263;52.260;10.548;2022-10-16T04:03:09;100157.06;;;14.89;100.00
7050;BME280;22263;52.260;10.548;2022-10-16T04:05:38;100147.97;;;14.85;100.00
7050;BME280;22263;52.260;10.548;2022-10-16T04:08:07;100147.69;;;14.76;100.00
7050;BME280;22263;52.260;10.548;2022-10-16T04:10:37;100154.50;;;14.68;100.00
7050;BME280;22263;52.260;10.548;2022-10-16T04:13:05;100160.03;;;14.75;100.00
7050;BME280;22263;52.260;10.548;2022-10-16T04:15:33;100162.81;;;14.75;100.00
7050;BME280;22263;52.260;10.548;2022-10-16T04:18:03;100157.69;;;14.70;100.00
7050;BME280;22263;52.260;10.548;2022-10-16T04:20:32;100162.88;;;14.68;100.00
7050;BME280;22263;52.260;10.548;2022-10-16T04:23:01;100164.94;;;14.60;100.00
7050;BME280;22263;52.260;10.548;2022-10-16T04:25:30;100172.91;;;14.58;100.00
7050;BME280;22263;52.260;10.548;2022-10-16T04:28:00;100166.97;;;14.56;100.00
7050;BME280;22263;52.260;10.548;2022-10-16T04:30:28;100164.25;;;14.53;100.00
7050;BME280;22263;52.260;10.548;2022-10-16T04:32:56;100168.97;;;14.56;100.00
7050;BME280;22263;52.260;10.548;2022-10-16T04:35:24;100184.91;;;14.52;100.00
7050;BME280;22263;52.260;10.548;2022-10-16T04:37:53;100193.69;;;14.50;100.00
7050;BME280;22263;52.260;10.548;2022-10-16T04:40:21;100188.94;;;14.47;100.00
7050;BME280;22263;52.260;10.548;2022-10-16T04:42:49;100194.16;;;14.42;100.00
7050;BME280;22263;52.260;10.548;2022-10-16T04:45:19;100206.44;;;14.44;100.00
7050;BME280;22263;52.260;10.548;2022-10-16T04:47:48;100208.81;;;14.46;100.00
7050;BME280;22263;52.260;10.548;2022-10-16T04:50:16;100195.75;;;14.43;100.00
7050;BME280;22263;52.260;10.548;2022-10-16T04:52:44;100188.09;;;14.50;100.00
7050;BME280;22263;52.260;10.548;2022-10-16T04:55:12;100194.91;;;14.46;100.00
7050;BME280;22263;52.260;10.548;2022-10-16T04:57:41;100212.81;;;14.45;100.00
7050;BME280;22263;52.260;10.548;2022-10-16T05:00:10;100195.00;;;14.38;100.00
7050;BME280;22263;52.260;10.548;2022-10-16T05:02:40;100183.81;;;14.42;100.00
7050;BME280;22263;52.260;10.548;2022-10-16T05:05:09;100177.06;;;14.43;100.00
7050;BME280;22263;52.260;10.548;2022-10-16T05:07:37;100182.19;;;14.45;100.00
7050;BME280;22263;52.260;10.548;2022-10-16T05:10:06;100194.91;;;14.46;100.00
7050;BME280;22263;52.260;10.548;2022-10-16T05:12:35;100210.03;;;14.45;100.00
7050;BME280;22263;52.260;10.548;2022-10-16T05:15:04;100207.25;;;14.45;100.00
7050;BME280;22263;52.260;10.548;2022-10-16T05:17:33;100206.88;;;14.43;100.00
7050;BME280;22263;52.260;10.548;2022-10-16T05:20:05;100213.16;;;14.50;100.00
7050;BME280;22263;52.260;10.548;2022-10-16T05:22:34;100225.44;;;14.56;100.00
7050;BME280;22263;52.260;10.548;2022-10-16T05:25:02;100231.41;;;14.55;100.00
7050;BME280;22263;52.260;10.548;2022-10-16T05:27:31;100222.25;;;14.54;100.00
7050;BME280;22263;52.260;10.548;2022-10-16T05:29:59;100228.25;;;14.53;100.00
7050;BME280;22263;52.260;10.548;2022-10-16T05:32:27;100228.22;;;14.56;100.00
7050;BME280;22263;52.260;10.548;2022-10-16T05:34:56;100221.84;;;14.56;100.00
7050;BME280;22263;52.260;10.548;2022-10-16T05:37:27;100211.91;;;14.55;100.00
7050;BME280;22263;52.260;10.548;2022-10-16T05:39:56;100213.47;;;14.59;100.00
7050;BME280;22263;52.260;10.548;2022-10-16T05:42:24;100232.59;;;14.54;100.00
7050;BME280;22263;52.260;10.548;2022-10-16T05:44:52;100231.41;;;14.55;100.00
7050;BME280;22263;52.260;10.548;2022-10-16T05:47:21;100217.88;;;14.53;100.00
7050;BME280;22263;52.260;10.548;2022-10-16T05:49:50;100224.25;;;14.54;100.00
7050;BME280;22263;52.260;10.548;2022-10-16T05:52:18;100240.19;;;14.50;100.00
7050;BME280;22263;52.260;10.548;2022-10-16T05:54:48;100246.19;;;14.45;100.00
7050;BME280;22263;52.260;10.548;2022-10-16T05:57:16;100248.97;;;14.48;100.00
7050;BME280;22263;52.260;10.548;2022-10-16T05:59:45;100248.16;;;14.48;100.00
7050;BME280;22263;52.260;10.548;2022-10-16T06:02:14;100251.41;;;14.39;100.00
7050;BME280;22263;52.260;10.548;2022-10-16T06:04:42;100256.19;;;14.38;100.00
7050;BME280;22263;52.260;10.548;2022-10-16T06:07:10;100259.81;;;14.28;100.00
7050;BME280;22263;52.260;10.548;2022-10-16T06:09:38;100264.16;;;14.33;100.00
7050;BME280;22263;52.260;10.548;2022-10-16T06:12:09;100260.94;;;14.34;100.00
7050;BME280;22263;52.260;10.548;2022-10-16T06:14:37;100268.16;;;14.28;100.00
7050;BME280;22263;52.260;10.548;2022-10-16T06:17:05;100274.06;;;14.34;100.00
7050;BME280;22263;52.260;10.548;2022-10-16T06:19:33;100277.28;;;14.36;100.00
7050;BME280;22263;52.260;10.548;2022-10-16T06:22:02;100285.97;;;14.42;100.00
7050;BME280;22263;52.260;10.548;2022-10-16T06:24:30;100289.13;;;14.44;100.00
7050;BME280;22263;52.260;10.548;2022-10-16T06:26:58;100283.56;;;14.47;100.00
7050;BME280;22263;52.260;10.548;2022-10-16T06:29:28;100271.53;;;14.57;100.00
7050;BME280;22263;52.260;10.548;2022-10-16T06:31:57;100275.47;;;14.60;100.00
7050;BME280;22263;52.260;10.548;2022-10-16T06:34:25;100277.81;;;14.65;100.00
7050;BME280;22263;52.260;10.548;2022-10-16T06:36:53;100286.94;;;14.69;100.00
7050;BME280;22263;52.260;10.548;2022-10-16T06:39:21;100279.34;;;14.73;100.00
7050;BME280;22263;52.260;10.548;2022-10-16T06:41:50;100297.63;;;14.74;100.00
7050;BME280;22263;52.260;10.548;2022-10-16T06:44:18;100292.84;;;14.74;100.00
7050;BME280;22263;52.260;10.548;2022-10-16T06:46:48;100289.22;;;14.81;100.00
7050;BME280;22263;52.260;10.548;2022-10-16T06:49:17;100288.81;;;14.79;100.00
7050;BME280;22263;52.260;10.548;2022-10-16T06:51:48;100305.75;;;14.99;100.00
7050;BME280;22263;52.260;10.548;2022-10-16T06:54:16;100308.78;;;15.15;100.00
7050;BME280;22263;52.260;10.548;2022-10-16T06:56:45;100303.44;;;15.27;100.00
7050;BME280;22263;52.260;10.548;2022-10-16T06:59:13;100307.03;;;15.28;100.00
7050;BME280;22263;52.260;10.548;2022-10-16T07:01:41;100317.88;;;15.19;100.00
7050;BME280;22263;52.260;10.548;2022-10-16T07:04:11;100317.78;;;15.26;100.00
7050;BME280;22263;52.260;10.548;2022-10-16T07:06:42;100316.13;;;15.32;100.00
7050;BME280;22263;52.260;10.548;2022-10-16T07:09:11;100324.78;;;15.41;100.00
7050;BME280;22263;52.260;10.548;2022-10-16T07:11:40;100327.91;;;15.47;100.00
7050;BME280;22263;52.260;10.548;2022-10-16T07:14:15;100325.22;;;15.74;100.00
7050;BME280;22263;52.260;10.548;2022-10-16T07:16:43;100328.47;;;15.99;100.00
7050;BME280;22263;52.260;10.548;2022-10-16T07:19:14;100323.75;;;16.49;100.00
7050;BME280;22263;52.260;10.548;2022-10-16T07:21:44;100321.47;;;17.14;100.00
7050;BME280;22263;52.260;10.548;2022-10-16T07:24:14;100315.00;;;17.80;100.00
7050;BME280;22263;52.260;10.548;2022-10-16T07:26:44;100312.31;;;18.28;100.00
7050;BME280;22263;52.260;10.548;2022-10-16T07:29:14;100311.69;;;18.37;100.00
7050;BME280;22263;52.260;10.548;2022-10-16T07:31:43;100312.44;;;18.90;100.00
7050;BME280;22263;52.260;10.548;2022-10-16T07:34:15;100328.09;;;19.48;100.00
7050;BME280;22263;52.260;10.548;2022-10-16T07:36:44;100326.69;;;19.56;100.00
7050;BME280;22263;52.260;10.548;2022-10-16T07:39:12;100324.91;;;20.17;100.00
7050;BME280;22263;52.260;10.548;2022-10-16T07:41:40;100325.03;;;20.38;100.00
7050;BME280;22263;52.260;10.548;2022-10-16T07:44:08;100338.13;;;21.05;100.00
7050;BME280;22263;52.260;10.548;2022-10-16T07:46:37;100328.03;;;20.82;100.00
7050;BME280;22263;52.260;10.548;2022-10-16T07:49:05;100322.25;;;20.98;100.00
7050;BME280;22263;52.260;10.548;2022-10-16T07:51:35;100334.72;;;21.22;100.00
7050;BME280;22263;52.260;10.548;2022-10-16T07:54:04;100337.94;;;21.55;100.00
7050;BME280;22263;52.260;10.548;2022-10-16T07:56:32;100337.66;;;21.41;100.00
7050;BME280;22263;52.260;10.548;2022-10-16T07:59:04;100339.66;;;21.53;100.00
7050;BME280;22263;52.260;10.548;2022-10-16T08:01:32;100336.97;;;22.14;100.00
7050;BME280;22263;52.260;10.548;2022-10-16T08:04:00;100332.84;;;21.41;100.00
7050;BME280;22263;52.260;10.548;2022-10-16T08:06:28;100340.38;;;20.97;100.00
7050;BME280;22263;52.260;10.548;2022-10-16T08:08:58;100343.66;;;20.83;100.00
7050;BME280;22263;52.260;10.548;2022-10-16T08:11:27;100353.19;;;20.98;100.00
7050;BME280;22263;52.260;10.548;2022-10-16T08:13:55;100359.84;;;20.92;100.00
7050;BME280;22263;52.260;10.548;2022-10-16T08:16:24;100362.16;;;21.06;100.00
7050;BME280;22263;52.260;10.548;2022-10-16T08:18:52;100366.44;;;21.79;100.00
7050;BME280;22263;52.260;10.548;2022-10-16T08:21:21;100377.97;;;22.46;100.00
7050;BME280;22263;52.260;10.548;2022-10-16T08:23:52;100382.94;;;22.11;100.00
7050;BME280;22263;52.260;10.548;2022-10-16T08:26:29;100382.03;;;22.14;100.00
7050;BME280;22263;52.260;10.548;2022-10-16T08:28:57;100380.81;;;22.86;100.00
7050;BME280;22263;52.260;10.548;2022-10-16T08:31:25;100391.00;;;22.53;100.00
7050;BME280;22263;52.260;10.548;2022-10-16T08:33:54;100379.50;;;22.38;100.00
7050;BME280;22263;52.260;10.548;2022-10-16T08:36:22;100381.13;;;22.48;100.00
7050;BME280;22263;52.260;10.548;2022-10-16T08:38:51;100400.97;;;22.45;100.00
7050;BME280;22263;52.260;10.548;2022-10-16T08:44:32;100389.09;;;21.97;100.00
7050;BME280;22263;52.260;10.548;2022-10-16T08:47:12;100393.44;;;22.42;100.00
7050;BME280;22263;52.260;10.548;2022-10-16T08:49:51;100399.13;;;21.77;100.00
7050;BME280;22263;52.260;10.548;2022-10-16T08:52:27;100399.19;;;20.92;100.00
7050;BME280;22263;52.260;10.548;2022-10-16T08:54:58;100397.97;;;21.05;100.00
7050;BME280;22263;52.260;10.548;2022-10-16T08:57:29;100397.06;;;20.83;100.00
7050;BME280;22263;52.260;10.548;2022-10-16T09:00:00;100391.53;;;20.92;100.00
7050;BME280;22263;52.260;10.548;2022-10-16T09:02:37;100403.94;;;20.82;100.00
7050;BME280;22263;52.260;10.548;2022-10-16T09:05:19;100409.09;;;20.45;100.00
7050;BME280;22263;52.260;10.548;2022-10-16T09:07:58;100410.59;;;20.75;100.00
7050;BME280;22263;52.260;10.548;2022-10-16T09:10:40;100412.78;;;21.87;100.00
7050;BME280;22263;52.260;10.548;2022-10-16T09:13:19;100422.38;;;22.11;100.00
7050;BME280;22263;52.260;10.548;2022-10-16T09:15:54;100421.97;;;22.44;100.00
7050;BME280;22263;52.260;10.548;2022-10-16T09:18:28;100429.06;;;22.57;100.00
7050;BME280;22263;52.260;10.548;2022-10-16T09:21:05;100434.91;;;22.63;100.00
7050;BME280;22263;52.260;10.548;2022-10-16T09:23:37;100426.50;;;22.20;100.00
7050;BME280;22263;52.260;10.548;2022-10-16T09:26:09;100431.66;;;22.21;100.00
7050;BME280;22263;52.260;10.548;2022-10-16T09:28:42;100438.41;;;23.16;100.00
7050;BME280;22263;52.260;10.548;2022-10-16T09:31:17;100450.44;;;23.66;100.00
7050;BME280;22263;52.260;10.548;2022-10-16T09:33:49;100444.31;;;23.67;100.00
7050;BME280;22263;52.260;10.548;2022-10-16T09:36:20;100449.47;;;23.51;100.00
7050;BME280;22263;52.260;10.548;2022-10-16T09:38:49;100440.63;;;23.21;100.00
7050;BME280;22263;52.260;10.548;2022-10-16T09:41:21;100455.69;;;23.27;100.00
7050;BME280;22263;52.260;10.548;2022-10-16T09:43:55;100442.34;;;23.19;100.00
7050;BME280;22263;52.260;10.548;2022-10-16T09:46:27;100444.78;;;23.66;100.00
7050;BME280;22263;52.260;10.548;2022-10-16T09:48:57;100463.72;;;22.98;100.00
7050;BME280;22263;52.260;10.548;2022-10-16T09:51:28;100455.78;;;24.00;100.00
7050;BME280;22263;52.260;10.548;2022-10-16T09:53:58;100466.22;;;24.63;96.26
7050;BME280;22263;52.260;10.548;2022-10-16T09:56:29;100463.88;;;25.04;91.56
7050;BME280;22263;52.260;10.548;2022-10-16T09:59:01;100471.88;;;25.38;84.90
7050;BME280;22263;52.260;10.548;2022-10-16T10:01:36;100475.16;;;25.70;83.58
7050;BME280;22263;52.260;10.548;2022-10-16T10:04:05;100490.72;;;24.66;86.36
7050;BME280;22263;52.260;10.548;2022-10-16T10:06:35;100487.34;;;24.26;91.22
7050;BME280;22263;52.260;10.548;2022-10-16T10:09:06;100509.47;;;23.91;95.93
7050;BME280;22263;52.260;10.548;2022-10-16T10:11:47;100491.72;;;23.90;94.43
7050;BME280;22263;52.260;10.548;2022-10-16T10:14:26;100486.41;;;24.11;95.47
7050;BME280;22263;52.260;10.548;2022-10-16T10:17:13;100489.53;;;23.27;100.00
7050;BME280;22263;52.260;10.548;2022-10-16T10:19:46;100481.38;;;23.87;97.57
7050;BME280;22263;52.260;10.548;2022-10-16T10:22:22;100469.91;;;24.27;88.43
7050;BME280;22263;52.260;10.548;2022-10-16T10:25:01;100488.25;;;23.68;94.82
7050;BME280;22263;52.260;10.548;2022-10-16T10:27:41;100484.03;;;24.00;93.21
7050;BME280;22263;52.260;10.548;2022-10-16T10:30:20;100499.34;;;23.04;95.73
7050;BME280;22263;52.260;10.548;2022-10-16T10:33:02;100484.88;;;22.93;98.99
7050;BME280;22263;52.260;10.548;2022-10-16T10:35:42;100496.75;;;22.88;97.44
7050;BME280;22263;52.260;10.548;2022-10-16T10:38:24;100483.97;;;22.44;100.00
7050;BME280;22263;52.260;10.548;2022-10-16T10:41:04;100483.00;;;22.69;100.00
7050;BME280;22263;52.260;10.548;2022-10-16T10:43:49;100482.09;;;23.52;93.72
7050;BME280;22263;52.260;10.548;2022-10-16T10:46:32;100485.91;;;23.76;87.35
7050;BME280;22263;52.260;10.548;2022-10-16T10:49:20;100487.94;;;23.57;90.81
7050;BME280;22263;52.260;10.548;2022-10-16T10:52:02;100479.91;;;24.47;85.35
7050;BME280;22263;52.260;10.548;2022-10-16T10:54:44;100498.50;;;24.02;81.92
7050;BME280;22263;52.260;10.548;2022-10-16T10:57:27;100490.63;;;24.15;80.77
7050;BME280;22263;52.260;10.548;2022-10-16T11:00:07;100487.66;;;24.10;78.01
7050;BME280;22263;52.260;10.548;2022-10-16T11:02:48;100478.78;;;25.37;68.04
7050;BME280;22263;52.260;10.548;2022-10-16T11:05:35;100485.97;;;25.24;66.51
7050;BME280;22263;52.260;10.548;2022-10-16T11:08:11;100498.59;;;24.62;71.69
7050;BME280;22263;52.260;10.548;2022-10-16T11:10:49;100497.63;;;25.49;64.88
7050;BME280;22263;52.260;10.548;2022-10-16T11:13:24;100501.03;;;24.97;58.88
7050;BME280;22263;52.260;10.548;2022-10-16T11:15:59;100513.06;;;24.10;64.12
7050;BME280;22263;52.260;10.548;2022-10-16T11:18:37;100508.69;;;23.90;65.85
7050;BME280;22263;52.260;10.548;2022-10-16T11:21:11;100517.97;;;24.27;66.33
7050;BME280;22263;52.260;10.548;2022-10-16T11:23:44;100514.94;;;25.51;60.88
7050;BME280;22263;52.260;10.548;2022-10-16T11:26:19;100510.84;;;26.15;54.38
7050;BME280;22263;52.260;10.548;2022-10-16T11:28:49;100517.88;;;26.72;50.97
7050;BME280;22263;52.260;10.548;2022-10-16T11:31:26;100512.97;;;26.43;49.84
7050;BME280;22263;52.260;10.548;2022-10-16T11:34:06;100516.50;;;27.26;48.64
7050;BME280;22263;52.260;10.548;2022-10-16T11:36:44;100526.34;;;28.01;46.56
7050;BME280;22263;52.260;10.548;2022-10-16T11:39:19;100528.97;;;28.25;47.06
7050;BME280;22263;52.260;10.548;2022-10-16T11:41:50;100530.66;;;28.16;46.27
7050;BME280;22263;52.260;10.548;2022-10-16T11:44:32;100532.31;;;29.00;44.79
7050;BME280;22263;52.260;10.548;2022-10-16T11:47:10;100515.63;;;29.19;45.25
7050;BME280;22263;52.260;10.548;2022-10-16T11:50:06;100524.72;;;29.60;43.20
7050;BME280;22263;52.260;10.548;2022-10-16T11:52:46;100519.84;;;29.66;42.58
7050;BME280;22263;52.260;10.548;2022-10-16T11:55:23;100540.66;;;29.41;41.95
7050;BME280;22263;52.260;10.548;2022-10-16T11:57:54;100525.66;;;29.88;41.95
7050;BME280;22263;52.260;10.548;2022-10-16T12:00:28;100526.78;;;29.54;42.98
7050;BME280;22263;52.260;10.548;2022-10-16T12:03:03;100535.72;;;30.43;42.06
7050;BME280;22263;52.260;10.548;2022-10-16T12:05:58;100535.56;;;30.91;40.48
7050;BME280;22263;52.260;10.548;2022-10-16T12:08:33;100537.72;;;30.20;40.88
7050;BME280;22263;52.260;10.548;2022-10-16T12:11:24;100537.88;;;30.76;41.92
7050;BME280;22263;52.260;10.548;2022-10-16T12:14:07;100542.41;;;29.70;43.38
7050;BME280;22263;52.260;10.548;2022-10-16T12:16:54;100541.06;;;30.13;42.02
7050;BME280;22263;52.260;10.548;2022-10-16T12:19:24;100555.56;;;29.62;42.92
7050;BME280;22263;52.260;10.548;2022-10-16T12:21:57;100564.59;;;28.00;45.55
7050;BME280;22263;52.260;10.548;2022-10-16T12:24:32;100566.41;;;29.52;43.63
7050;BME280;22263;52.260;10.548;2022-10-16T12:27:01;100567.09;;;29.41;43.12
7050;BME280;22263;52.260;10.548;2022-10-16T12:29:34;100560.16;;;28.85;44.89
7050;BME280;22263;52.260;10.548;2022-10-16T12:32:05;100565.47;;;27.71;49.28
7050;BME280;22263;52.260;10.548;2022-10-16T12:34:39;100567.69;;;28.68;46.44
7050;BME280;22263;52.260;10.548;2022-10-16T12:37:14;100556.41;;;28.28;47.62
7050;BME280;22263;52.260;10.548;2022-10-16T12:39:48;100562.31;;;28.24;46.84
7050;BME280;22263;52.260;10.548;2022-10-16T12:42:32;100556.59;;;28.70;45.91
7050;BME280;22263;52.260;10.548;2022-10-16T12:45:01;100562.97;;;27.58;48.34
7050;BME280;22263;52.260;10.548;2022-10-16T12:47:46;100558.03;;;27.94;46.81
7050;BME280;22263;52.260;10.548;2022-10-16T12:50:31;100551.88;;;27.60;48.39
7050;BME280;22263;52.260;10.548;2022-10-16T12:53:04;100558.63;;;27.48;48.56
7050;BME280;22263;52.260;10.548;2022-10-16T12:55:43;100564.19;;;27.22;48.84
7050;BME280;22263;52.260;10.548;2022-10-16T12:58:28;100559.00;;;27.70;47.67
7050;BME280;22263;52.260;10.548;2022-10-16T13:01:09;100555.41;;;26.91;49.37
7050;BME280;22263;52.260;10.548;2022-10-16T13:04:10;100567.09;;;27.43;48.95
7050;BME280;22263;52.260;10.548;2022-10-16T13:06:48;100559.31;;;27.08;48.94
7050;BME280;22263;52.260;10.548;2022-10-16T13:09:40;100556.13;;;27.36;46.91
7050;BME280;22263;52.260;10.548;2022-10-16T13:12:18;100554.50;;;26.70;47.67